createdAt,value
2023-04-15T00:00:41.509Z,36
2023-04-15T00:01:44.908Z,36
2023-04-15T00:02:48.834Z,37
2023-04-15T00:03:52.924Z,37
2023-04-15T00:04:56.794Z,37
2023-04-15T00:06:00.134Z,37
2023-04-15T00:07:03.566Z,37
2023-04-15T00:08:06.920Z,37
2023-04-15T00:09:10.435Z,37
2023-04-15T00:10:13.708Z,37
2023-04-15T00:11:16.982Z,38
2023-04-15T00:12:20.492Z,38
2023-04-15T00:13:23.861Z,38
2023-04-15T00:14:27.160Z,38
2023-04-15T00:15:30.465Z,38
2023-04-15T00:16:33.807Z,39
2023-04-15T00:17:37.218Z,39
2023-04-15T00:18:40.550Z,39
2023-04-15T00:19:43.879Z,39
2023-04-15T00:20:47.385Z,39
2023-04-15T00:21:50.682Z,39
2023-04-15T00:22:53.978Z,39
2023-04-15T00:23:57.471Z,39
2023-04-15T00:25:00.802Z,39
2023-04-15T00:26:04.103Z,39
2023-04-15T00:27:07.442Z,39
2023-04-15T00:28:10.722Z,39
2023-04-15T00:29:14.334Z,39
2023-04-15T00:30:17.651Z,39
2023-04-15T00:31:21.356Z,39
2023-04-15T00:32:24.901Z,39
2023-04-15T00:33:28.443Z,39
2023-04-15T00:34:31.747Z,39
2023-04-15T00:35:35.012Z,39
2023-04-15T00:36:38.578Z,39
2023-04-15T00:37:43.230Z,39
2023-04-15T00:38:49.603Z,39
2023-04-15T00:39:52.915Z,39
2023-04-15T00:40:56.468Z,39
2023-04-15T00:41:59.768Z,39
2023-04-15T00:43:03.074Z,39
2023-04-15T00:44:06.510Z,39
2023-04-15T00:45:09.772Z,39
2023-04-15T00:46:13.135Z,39
2023-04-15T00:47:16.537Z,39
2023-04-15T00:48:19.815Z,39
2023-04-15T00:49:23.416Z,39
2023-04-15T00:50:26.704Z,39
2023-04-15T00:51:30.006Z,39
2023-04-15T00:52:33.446Z,39
2023-04-15T00:53:36.705Z,39
2023-04-15T00:54:40.013Z,39
2023-04-15T00:55:43.489Z,39
2023-04-15T00:56:46.805Z,39
2023-04-15T00:57:50.318Z,39
2023-04-15T00:58:53.607Z,39
2023-04-15T00:59:56.924Z,39
2023-04-15T01:01:00.483Z,39
2023-04-15T01:02:04.252Z,39
2023-04-15T01:03:08.539Z,39
2023-04-15T01:04:12.606Z,39
2023-04-15T01:05:16.129Z,38
2023-04-15T01:06:19.480Z,38
2023-04-15T01:07:22.814Z,38
2023-04-15T01:08:26.359Z,38
2023-04-15T01:09:29.632Z,37
2023-04-15T01:10:32.962Z,37
2023-04-15T01:11:36.472Z,37
2023-04-15T01:12:39.816Z,37
2023-04-15T01:13:43.133Z,37
2023-04-15T01:14:46.518Z,37
2023-04-15T01:15:49.834Z,37
2023-04-15T01:16:53.583Z,37
2023-04-15T01:17:56.971Z,38
2023-04-15T01:19:00.862Z,38
2023-04-15T01:20:04.627Z,38
2023-04-15T01:21:07.932Z,38
2023-04-15T01:22:11.467Z,38
2023-04-15T01:23:14.780Z,39
2023-04-15T01:24:18.040Z,39
2023-04-15T01:25:21.455Z,39
2023-04-15T01:26:24.739Z,39
2023-04-15T01:27:28.049Z,39
2023-04-15T01:28:31.491Z,39
2023-04-15T01:29:34.764Z,39
2023-04-15T01:30:38.061Z,39
2023-04-15T01:31:41.599Z,39
2023-04-15T01:32:45.117Z,39
2023-04-15T01:33:48.493Z,39
2023-04-15T01:34:51.820Z,39
2023-04-15T01:35:55.112Z,39
2023-04-15T01:36:58.479Z,39
2023-04-15T01:38:01.839Z,39
2023-04-15T01:39:05.166Z,39
2023-04-15T01:40:08.514Z,39
2023-04-15T01:41:11.885Z,39
2023-04-15T01:42:15.169Z,39
2023-04-15T01:43:18.481Z,39
2023-04-15T01:44:21.789Z,39
2023-04-15T01:45:25.086Z,39
2023-04-15T01:46:28.548Z,39
2023-04-15T01:47:31.909Z,39
2023-04-15T01:48:35.488Z,39
2023-04-15T01:49:38.775Z,39
2023-04-15T01:50:42.103Z,39
2023-04-15T01:51:45.497Z,39
2023-04-15T01:52:48.754Z,39
2023-04-15T01:53:52.035Z,39
2023-04-15T01:54:55.469Z,39
2023-04-15T01:55:58.753Z,39
2023-04-15T01:57:02.039Z,39
2023-04-15T01:58:05.564Z,39
2023-04-15T01:59:08.852Z,39
2023-04-15T02:00:12.158Z,39
2023-04-15T02:01:15.589Z,39
2023-04-15T02:02:19.202Z,39
2023-04-15T02:03:22.979Z,39
2023-04-15T02:04:26.810Z,39
2023-04-15T02:05:30.088Z,39
2023-04-15T02:06:33.552Z,39
2023-04-15T02:07:37.017Z,39
2023-04-15T02:08:40.510Z,39
2023-04-15T02:09:43.784Z,39
2023-04-15T02:10:47.085Z,39
2023-04-15T02:11:50.587Z,39
2023-04-15T02:12:53.889Z,39
2023-04-15T02:13:57.181Z,40
2023-04-15T02:15:00.575Z,39
2023-04-15T02:16:04.275Z,40
2023-04-15T02:17:07.757Z,39
2023-04-15T02:18:11.020Z,39
2023-04-15T02:19:14.576Z,38
2023-04-15T02:20:17.855Z,38
2023-04-15T02:21:21.171Z,38
2023-04-15T02:22:24.475Z,37
2023-04-15T02:23:27.767Z,37
2023-04-15T02:24:31.050Z,38
2023-04-15T02:25:34.484Z,38
2023-04-15T02:26:37.764Z,38
2023-04-15T02:27:41.048Z,38
2023-04-15T02:28:44.590Z,38
2023-04-15T02:29:47.904Z,39
2023-04-15T02:30:51.203Z,39
2023-04-15T02:31:54.620Z,39
2023-04-15T02:32:58.005Z,39
2023-04-15T02:34:01.496Z,39
2023-04-15T02:35:04.759Z,39
2023-04-15T02:36:08.389Z,39
2023-04-15T02:37:11.690Z,39
2023-04-15T02:38:15.012Z,39
2023-04-15T02:39:18.527Z,39
2023-04-15T02:40:21.877Z,39
2023-04-15T02:41:25.190Z,39
2023-04-15T02:42:28.515Z,39
2023-04-15T02:43:31.772Z,39
2023-04-15T02:44:35.037Z,39
2023-04-15T02:45:38.715Z,39
2023-04-15T02:46:42.098Z,39
2023-04-15T02:47:45.648Z,39
2023-04-15T02:48:49.010Z,39
2023-04-15T02:49:52.499Z,39
2023-04-15T02:50:55.774Z,39
2023-04-15T02:51:59.046Z,39
2023-04-15T02:53:02.573Z,39
2023-04-15T02:54:05.914Z,39
2023-04-15T02:55:09.204Z,39
2023-04-15T02:56:12.494Z,39
2023-04-15T02:57:15.750Z,39
2023-04-15T02:58:19.018Z,39
2023-04-15T02:59:22.525Z,39
2023-04-15T03:00:25.809Z,39
2023-04-15T03:01:29.155Z,39
2023-04-15T03:02:33.148Z,39
2023-04-15T03:03:36.909Z,39
2023-04-15T03:04:40.505Z,39
2023-04-15T03:05:43.778Z,38
2023-04-15T03:06:47.047Z,38
2023-04-15T03:07:50.567Z,38
2023-04-15T03:08:53.836Z,38
2023-04-15T03:09:57.194Z,37
2023-04-15T03:11:00.493Z,37
2023-04-15T03:12:03.785Z,37
2023-04-15T03:13:07.119Z,37
2023-04-15T03:14:10.547Z,37
2023-04-15T03:15:13.839Z,37
2023-04-15T03:16:17.441Z,37
2023-04-15T03:17:20.892Z,37
2023-04-15T03:18:24.307Z,37
2023-04-15T03:19:27.635Z,37
2023-04-15T03:20:30.969Z,37
2023-04-15T03:21:34.508Z,37
2023-04-15T03:22:37.775Z,37
2023-04-15T03:23:41.057Z,38
2023-04-15T03:24:44.596Z,38
2023-04-15T03:25:47.903Z,38
2023-04-15T03:26:51.218Z,38
2023-04-15T03:27:54.518Z,39
2023-04-15T03:28:57.853Z,39
2023-04-15T03:30:01.568Z,39
2023-04-15T03:31:04.917Z,39
2023-04-15T03:32:08.503Z,39
2023-04-15T03:33:11.809Z,39
2023-04-15T03:34:15.131Z,39
2023-04-15T03:35:18.586Z,39
2023-04-15T03:36:21.893Z,39
2023-04-15T03:37:25.164Z,39
2023-04-15T03:38:28.528Z,39
2023-04-15T03:39:31.820Z,39
2023-04-15T03:40:35.133Z,39
2023-04-15T03:41:38.901Z,39
2023-04-15T03:42:45.516Z,39
2023-04-15T03:43:48.797Z,38
2023-04-15T03:44:52.077Z,38
2023-04-15T03:45:55.538Z,38
2023-04-15T03:46:58.808Z,38
2023-04-15T03:48:18.721Z,39
2023-04-15T03:49:22.136Z,39
2023-04-15T03:50:25.553Z,39
2023-04-15T03:51:28.985Z,39
2023-04-15T03:52:32.256Z,39
2023-04-15T03:53:35.529Z,39
2023-04-15T03:54:39.038Z,39
2023-04-15T03:55:42.319Z,39
2023-04-15T03:56:45.609Z,39
2023-04-15T03:57:48.975Z,39
2023-04-15T03:58:52.261Z,39
2023-04-15T03:59:55.560Z,39
2023-04-15T04:00:58.979Z,39
2023-04-15T04:02:02.544Z,39
2023-04-15T04:03:06.735Z,39
2023-04-15T04:04:10.699Z,38
2023-04-15T04:05:14.128Z,38
2023-04-15T04:06:17.425Z,38
2023-04-15T04:07:20.957Z,38
2023-04-15T04:08:24.247Z,38
2023-04-15T04:09:27.527Z,39
2023-04-15T04:10:30.988Z,39
2023-04-15T04:11:34.273Z,39
2023-04-15T04:12:37.571Z,38
2023-04-15T04:13:41.036Z,38
2023-04-15T04:14:44.321Z,38
2023-04-15T04:15:47.909Z,38
2023-04-15T04:16:51.346Z,38
2023-04-15T04:17:54.788Z,38
2023-04-15T04:18:58.168Z,38
2023-04-15T04:20:01.474Z,39
2023-04-15T04:21:05.015Z,39
2023-04-15T04:22:08.352Z,39
2023-04-15T04:23:11.866Z,39
2023-04-15T04:24:15.134Z,39
2023-04-15T04:25:18.439Z,39
2023-04-15T04:26:21.738Z,39
2023-04-15T04:27:25.048Z,39
2023-04-15T04:28:28.343Z,39
2023-04-15T04:29:31.603Z,39
2023-04-15T04:30:35.013Z,39
2023-04-15T04:31:38.384Z,39
2023-04-15T04:32:42.004Z,39
2023-04-15T04:33:45.482Z,39
2023-04-15T04:34:48.990Z,39
2023-04-15T04:35:52.262Z,39
2023-04-15T04:36:55.553Z,39
2023-04-15T04:37:59.022Z,38
2023-04-15T04:39:03.130Z,39
2023-04-15T04:40:07.043Z,38
2023-04-15T04:41:10.363Z,38
2023-04-15T04:42:13.657Z,38
2023-04-15T04:43:16.980Z,37
2023-04-15T04:44:20.295Z,37
2023-04-15T04:45:23.584Z,38
2023-04-15T04:46:27.087Z,38
2023-04-15T04:47:30.439Z,38
2023-04-15T04:48:33.991Z,38
2023-04-15T04:49:37.302Z,38
2023-04-15T04:50:41.026Z,39
2023-04-15T04:51:44.337Z,39
2023-04-15T04:52:47.907Z,39
2023-04-15T04:53:51.228Z,39
2023-04-15T04:54:54.500Z,39
2023-04-15T04:55:58.018Z,39
2023-04-15T04:57:01.346Z,39
2023-04-15T04:58:04.623Z,39
2023-04-15T04:59:08.019Z,39
2023-04-15T05:00:11.340Z,39
2023-04-15T05:01:14.980Z,39
2023-04-15T05:02:18.698Z,39
2023-04-15T05:03:22.674Z,39
2023-04-15T05:04:26.189Z,38
2023-04-15T05:05:29.497Z,38
2023-04-15T05:06:33.014Z,37
2023-04-15T05:07:36.297Z,37
2023-04-15T05:08:40.610Z,37
2023-04-15T05:09:44.052Z,37
2023-04-15T05:10:47.349Z,38
2023-04-15T05:11:50.897Z,38
2023-04-15T05:12:54.237Z,38
2023-04-15T05:13:57.501Z,38
2023-04-15T05:15:01.015Z,39
2023-04-15T05:16:04.420Z,39
2023-04-15T05:17:08.037Z,39
2023-04-15T05:18:11.453Z,39
2023-04-15T05:19:15.209Z,39
2023-04-15T05:20:18.536Z,39
2023-04-15T05:21:22.069Z,39
2023-04-15T05:22:25.368Z,39
2023-04-15T05:23:28.658Z,39
2023-04-15T05:24:32.074Z,39
2023-04-15T05:25:35.418Z,39
2023-04-15T05:26:38.989Z,39
2023-04-15T05:27:42.327Z,39
2023-04-15T05:28:45.615Z,39
2023-04-15T05:29:49.021Z,39
2023-04-15T05:30:52.381Z,39
2023-04-15T05:31:55.868Z,39
2023-04-15T05:32:59.407Z,39
2023-04-15T05:34:02.998Z,39
2023-04-15T05:35:06.285Z,39
2023-04-15T05:36:09.575Z,39
2023-04-15T05:37:13.088Z,39
2023-04-15T05:38:16.371Z,39
2023-04-15T05:39:19.640Z,38
2023-04-15T05:40:23.073Z,38
2023-04-15T05:41:26.417Z,37
2023-04-15T05:42:29.995Z,37
2023-04-15T05:43:33.272Z,37
2023-04-15T05:44:36.557Z,37
2023-04-15T05:45:40.060Z,37
2023-04-15T05:46:43.628Z,37
2023-04-15T05:47:47.243Z,37
2023-04-15T05:48:50.570Z,37
2023-04-15T05:49:54.080Z,37
2023-04-15T05:50:57.358Z,37
2023-04-15T05:52:00.646Z,38
2023-04-15T05:53:04.089Z,38
2023-04-15T05:54:07.386Z,38
2023-04-15T05:55:10.677Z,38
2023-04-15T05:56:14.065Z,38
2023-04-15T05:57:17.353Z,38
2023-04-15T05:58:20.953Z,38
2023-04-15T05:59:24.237Z,38
2023-04-15T06:00:27.531Z,39
2023-04-15T06:01:31.037Z,39
2023-04-15T06:02:34.582Z,39
2023-04-15T06:03:39.065Z,39
2023-04-15T06:04:42.922Z,38
2023-04-15T06:05:46.290Z,38
2023-04-15T06:06:49.572Z,38
2023-04-15T06:07:53.050Z,38
2023-04-15T06:08:56.368Z,39
2023-04-15T06:09:59.654Z,39
2023-04-15T06:11:03.149Z,39
2023-04-15T06:12:06.442Z,39
2023-04-15T06:13:09.770Z,39
2023-04-15T06:14:13.055Z,39
2023-04-15T06:15:16.321Z,39
2023-04-15T06:16:19.758Z,39
2023-04-15T06:17:23.187Z,39
2023-04-15T06:18:26.620Z,39
2023-04-15T06:19:30.175Z,39
2023-04-15T06:20:33.477Z,39
2023-04-15T06:21:36.738Z,39
2023-04-15T06:22:40.065Z,39
2023-04-15T06:23:43.352Z,39
2023-04-15T06:24:46.638Z,39
2023-04-15T06:25:50.047Z,39
2023-04-15T06:26:53.323Z,39
2023-04-15T06:27:56.657Z,38
2023-04-15T06:29:00.910Z,38
2023-04-15T06:30:04.610Z,37
2023-04-15T06:31:08.287Z,37
2023-04-15T06:32:11.666Z,38
2023-04-15T06:33:15.161Z,38
2023-04-15T06:34:18.464Z,38
2023-04-15T06:35:21.789Z,38
2023-04-15T06:36:25.093Z,38
2023-04-15T06:37:28.427Z,38
2023-04-15T06:38:31.718Z,38
2023-04-15T06:39:35.083Z,38
2023-04-15T06:40:38.364Z,39
2023-04-15T06:41:41.643Z,39
2023-04-15T06:42:45.189Z,39
2023-04-15T06:43:48.731Z,39
2023-04-15T06:44:52.121Z,39
2023-04-15T06:45:55.583Z,39
2023-04-15T06:46:59.058Z,38
2023-04-15T06:48:02.338Z,38
2023-04-15T06:49:05.657Z,38
2023-04-15T06:50:09.228Z,37
2023-04-15T06:51:12.595Z,37
2023-04-15T06:52:16.041Z,37
2023-04-15T06:53:19.327Z,37
2023-04-15T06:54:22.623Z,37
2023-04-15T06:55:26.070Z,36
2023-04-15T06:56:29.359Z,36
2023-04-15T06:57:35.282Z,36
2023-04-15T06:58:38.942Z,36
2023-04-15T06:59:42.246Z,36
2023-04-15T07:00:45.597Z,36
2023-04-15T07:01:49.160Z,36
2023-04-15T07:02:52.560Z,36
2023-04-15T07:03:56.112Z,37
2023-04-15T07:04:59.395Z,37
2023-04-15T07:06:02.948Z,38
2023-04-15T07:07:06.267Z,38
2023-04-15T07:08:09.567Z,38
2023-04-15T07:09:13.061Z,38
2023-04-15T07:10:16.352Z,38
2023-04-15T07:11:19.659Z,38
2023-04-15T07:12:23.085Z,38
2023-04-15T07:13:26.394Z,39
2023-04-15T07:14:29.676Z,39
2023-04-15T07:15:33.197Z,39
2023-04-15T07:16:36.745Z,39
2023-04-15T07:17:40.258Z,39
2023-04-15T07:18:43.679Z,39
2023-04-15T07:19:47.133Z,39
2023-04-15T07:20:50.405Z,39
2023-04-15T07:21:53.952Z,39
2023-04-15T07:22:57.303Z,39
2023-04-15T07:24:00.581Z,39
2023-04-15T07:25:04.097Z,39
2023-04-15T07:26:07.386Z,39
2023-04-15T07:27:10.663Z,39
2023-04-15T07:28:14.079Z,39
2023-04-15T07:29:17.392Z,39
2023-04-15T07:30:20.691Z,39
2023-04-15T07:31:24.291Z,39
2023-04-15T07:32:27.819Z,40
2023-04-15T07:33:31.212Z,39
2023-04-15T07:34:34.525Z,39
2023-04-15T07:35:37.817Z,39
2023-04-15T07:36:41.100Z,39
2023-04-15T07:37:44.387Z,39
2023-04-15T07:38:47.960Z,39
2023-04-15T07:39:51.237Z,41
2023-04-15T07:40:54.560Z,46
2023-04-15T07:41:58.103Z,49
2023-04-15T07:43:01.376Z,50
2023-04-15T07:44:04.665Z,51
2023-04-15T07:45:08.115Z,48
2023-04-15T07:46:11.475Z,46
2023-04-15T07:47:15.077Z,44
2023-04-15T07:48:18.444Z,44
2023-04-15T07:49:21.766Z,44
2023-04-15T07:50:25.116Z,45
2023-04-15T07:51:28.395Z,44
2023-04-15T07:52:31.664Z,44
2023-04-15T07:53:35.092Z,44
2023-04-15T07:54:38.419Z,44
2023-04-15T07:55:42.013Z,44
2023-04-15T07:56:45.292Z,44
2023-04-15T07:57:48.629Z,44
2023-04-15T07:58:52.094Z,44
2023-04-15T07:59:55.366Z,44
2023-04-15T08:00:58.650Z,44
2023-04-15T08:02:02.161Z,44
2023-04-15T08:03:06.110Z,44
2023-04-15T08:04:10.120Z,44
2023-04-15T08:05:13.774Z,43
2023-04-15T08:06:17.203Z,43
2023-04-15T08:07:20.476Z,42
2023-04-15T08:08:24.025Z,42
2023-04-15T08:09:27.412Z,42
2023-04-15T08:10:30.728Z,42
2023-04-15T08:11:34.089Z,42
2023-04-15T08:12:37.425Z,42
2023-04-15T08:13:40.688Z,42
2023-04-15T08:14:44.101Z,42
2023-04-15T08:15:47.447Z,42
2023-04-15T08:16:51.016Z,42
2023-04-15T08:17:54.459Z,43
2023-04-15T08:18:58.424Z,44
2023-04-15T08:20:02.168Z,44
2023-04-15T08:21:05.495Z,44
2023-04-15T08:22:15.486Z,45
2023-04-15T08:23:23.451Z,45
2023-04-15T08:24:27.523Z,45
2023-04-15T08:25:30.796Z,45
2023-04-15T08:26:34.115Z,45
2023-04-15T08:27:37.365Z,45
2023-04-15T08:28:40.631Z,45
2023-04-15T08:29:44.122Z,45
2023-04-15T08:30:47.421Z,45
2023-04-15T08:31:51.081Z,45
2023-04-15T08:32:54.681Z,46
2023-04-15T08:33:58.335Z,46
2023-04-15T08:35:01.667Z,45
2023-04-15T08:36:05.153Z,46
2023-04-15T08:37:08.415Z,46
2023-04-15T08:38:12.133Z,46
2023-04-15T08:39:15.425Z,46
2023-04-15T08:40:18.723Z,46
2023-04-15T08:41:22.120Z,46
2023-04-15T08:42:25.641Z,46
2023-04-15T08:43:29.143Z,46
2023-04-15T08:44:32.417Z,46
2023-04-15T08:45:35.711Z,46
2023-04-15T08:46:39.377Z,46
2023-04-15T08:47:43.261Z,46
2023-04-15T08:48:46.686Z,45
2023-04-15T08:49:50.117Z,46
2023-04-15T08:50:53.438Z,45
2023-04-15T08:51:57.000Z,46
2023-04-15T08:53:00.274Z,45
2023-04-15T08:54:03.549Z,46
2023-04-15T08:55:06.834Z,46
2023-04-15T08:56:10.175Z,46
2023-04-15T08:57:13.488Z,45
2023-04-15T08:58:16.794Z,45
2023-04-15T08:59:20.132Z,45
2023-04-15T09:00:23.450Z,45
2023-04-15T09:01:27.096Z,45
2023-04-15T09:02:30.709Z,45
2023-04-15T09:03:34.439Z,45
2023-04-15T09:04:38.144Z,45
2023-04-15T09:05:41.456Z,45
2023-04-15T09:06:45.053Z,45
2023-04-15T09:07:48.504Z,45
2023-04-15T09:08:51.854Z,45
2023-04-15T09:09:55.244Z,45
2023-04-15T09:10:58.583Z,45
2023-04-15T09:12:01.896Z,45
2023-04-15T09:13:05.223Z,45
2023-04-15T09:14:08.515Z,45
2023-04-15T09:15:12.046Z,45
2023-04-15T09:16:15.385Z,45
2023-04-15T09:17:19.182Z,45
2023-04-15T09:18:22.640Z,45
2023-04-15T09:19:26.165Z,45
2023-04-15T09:20:29.476Z,45
2023-04-15T09:21:33.026Z,45
2023-04-15T09:22:36.325Z,45
2023-04-15T09:23:39.626Z,45
2023-04-15T09:24:43.142Z,45
2023-04-15T09:25:46.460Z,45
2023-04-15T09:26:49.761Z,45
2023-04-15T09:27:53.134Z,45
2023-04-15T09:28:56.413Z,45
2023-04-15T09:29:59.715Z,45
2023-04-15T09:31:03.324Z,45
2023-04-15T09:32:06.656Z,45
2023-04-15T09:33:10.151Z,45
2023-04-15T09:34:13.418Z,45
2023-04-15T09:35:16.690Z,45
2023-04-15T09:36:19.955Z,45
2023-04-15T09:37:32.225Z,45
2023-04-15T09:38:36.191Z,45
2023-04-15T09:39:39.483Z,44
2023-04-15T09:40:42.762Z,45
2023-04-15T09:41:46.146Z,45
2023-04-15T09:42:50.463Z,45
2023-04-15T09:43:53.736Z,45
2023-04-15T09:44:57.245Z,45
2023-04-15T09:46:00.751Z,45
2023-04-15T09:47:04.395Z,45
2023-04-15T09:48:07.945Z,45
2023-04-15T09:49:11.292Z,45
2023-04-15T09:50:14.604Z,45
2023-04-15T09:51:18.152Z,45
2023-04-15T09:52:21.499Z,44
2023-04-15T09:53:24.801Z,45
2023-04-15T09:54:28.241Z,45
2023-04-15T09:55:31.651Z,45
2023-04-15T09:56:35.159Z,45
2023-04-15T09:57:38.454Z,45
2023-04-15T09:58:41.776Z,45
2023-04-15T09:59:45.280Z,45
2023-04-15T10:00:48.561Z,45
2023-04-15T10:01:52.304Z,45
2023-04-15T10:02:56.406Z,45
2023-04-15T10:04:00.725Z,45
2023-04-15T10:05:04.882Z,45
2023-04-15T10:06:08.199Z,44
2023-04-15T10:07:11.506Z,44
2023-04-15T10:08:15.074Z,45
2023-04-15T10:09:18.452Z,45
2023-04-15T10:10:21.769Z,45
2023-04-15T10:11:25.233Z,45
2023-04-15T10:12:28.542Z,45
2023-04-15T10:13:31.831Z,44
2023-04-15T10:14:35.172Z,45
2023-04-15T10:15:38.597Z,45
2023-04-15T10:16:42.360Z,45
2023-04-15T10:17:45.718Z,45
2023-04-15T10:18:49.181Z,45
2023-04-15T10:19:52.482Z,44
2023-04-15T10:20:55.743Z,44
2023-04-15T10:21:59.197Z,44
2023-04-15T10:23:02.469Z,45
2023-04-15T10:24:05.751Z,44
2023-04-15T10:25:09.291Z,44
2023-04-15T10:26:12.614Z,44
2023-04-15T10:27:15.923Z,44
2023-04-15T10:28:19.240Z,44
2023-04-15T10:29:22.564Z,44
2023-04-15T10:30:26.206Z,44
2023-04-15T10:31:29.813Z,44
2023-04-15T10:32:33.522Z,44
2023-04-15T10:33:37.182Z,44
2023-04-15T10:34:40.433Z,43
2023-04-15T10:35:43.693Z,43
2023-04-15T10:36:47.191Z,43
2023-04-15T10:37:50.485Z,42
2023-04-15T10:38:53.777Z,42
2023-04-15T10:39:57.280Z,42
2023-04-15T10:41:00.620Z,42
2023-04-15T10:42:03.946Z,42
2023-04-15T10:43:07.227Z,42
2023-04-15T10:44:10.536Z,41
2023-04-15T10:45:13.842Z,41
2023-04-15T10:46:17.417Z,41
2023-04-15T10:47:20.738Z,42
2023-04-15T10:48:24.348Z,42
2023-04-15T10:49:27.636Z,43
2023-04-15T10:50:30.899Z,43
2023-04-15T10:51:34.220Z,43
2023-04-15T10:52:37.494Z,43
2023-04-15T10:53:40.766Z,44
2023-04-15T10:54:44.196Z,44
2023-04-15T10:55:47.498Z,44
2023-04-15T10:56:51.097Z,44
2023-04-15T10:57:54.433Z,44
2023-04-15T10:58:57.787Z,44
2023-04-15T11:00:01.207Z,44
2023-04-15T11:01:04.502Z,44
2023-04-15T11:02:08.072Z,44
2023-04-15T11:03:11.833Z,44
2023-04-15T11:04:15.916Z,44
2023-04-15T11:05:19.431Z,44
2023-04-15T11:06:22.737Z,44
2023-04-15T11:07:26.248Z,44
2023-04-15T11:08:29.529Z,44
2023-04-15T11:09:33.060Z,44
2023-04-15T11:10:36.331Z,44
2023-04-15T11:11:39.622Z,44
2023-04-15T11:12:42.929Z,44
2023-04-15T11:13:46.278Z,44
2023-04-15T11:14:49.582Z,44
2023-04-15T11:15:52.882Z,44
2023-04-15T11:16:56.212Z,44
2023-04-15T11:17:59.718Z,44
2023-04-15T11:19:03.458Z,44
2023-04-15T11:20:06.742Z,44
2023-04-15T11:21:10.190Z,44
2023-04-15T11:22:13.484Z,44
2023-04-15T11:23:16.742Z,44
2023-04-15T11:24:20.589Z,44
2023-04-15T11:25:24.855Z,44
2023-04-15T11:26:28.348Z,44
2023-04-15T11:27:31.634Z,44
2023-04-15T11:28:36.779Z,44
2023-04-15T11:29:45.790Z,44
2023-04-15T11:30:49.221Z,43
2023-04-15T11:31:52.546Z,43
2023-04-15T11:32:55.933Z,42
2023-04-15T11:33:59.692Z,42
2023-04-15T11:35:03.516Z,42
2023-04-15T11:36:06.839Z,42
2023-04-15T11:37:10.196Z,41
2023-04-15T11:38:13.482Z,41
2023-04-15T11:39:16.746Z,41
2023-04-15T11:40:20.235Z,41
2023-04-15T11:41:23.512Z,41
2023-04-15T11:42:39.416Z,41
2023-04-15T11:43:45.080Z,41
2023-04-15T11:44:48.379Z,41
2023-04-15T11:45:51.927Z,41
2023-04-15T11:46:55.266Z,41
2023-04-15T11:47:58.608Z,41
2023-04-15T11:49:02.218Z,41
2023-04-15T11:50:05.496Z,41
2023-04-15T11:51:08.812Z,41
2023-04-15T11:52:12.403Z,42
2023-04-15T11:53:15.729Z,42
2023-04-15T11:54:19.211Z,42
2023-04-15T11:55:22.496Z,43
2023-04-15T11:56:25.803Z,43
2023-04-15T11:57:29.224Z,43
2023-04-15T11:58:32.495Z,43
2023-04-15T11:59:45.134Z,43
2023-04-15T12:00:49.588Z,43
2023-04-15T12:01:53.044Z,43
2023-04-15T12:02:56.678Z,44
2023-04-15T12:04:00.861Z,43
2023-04-15T12:05:04.487Z,43
2023-04-15T12:06:08.220Z,44
2023-04-15T12:07:11.546Z,43
2023-04-15T12:08:14.838Z,44
2023-04-15T12:09:18.377Z,44
2023-04-15T12:10:21.663Z,43
2023-04-15T12:11:25.235Z,44
2023-04-15T12:12:28.519Z,44
2023-04-15T12:13:31.804Z,43
2023-04-15T12:14:35.215Z,43
2023-04-15T12:15:38.560Z,44
2023-04-15T12:16:49.330Z,44
2023-04-15T12:17:55.338Z,43
2023-04-15T12:18:58.841Z,43
2023-04-15T12:20:02.246Z,43
2023-04-15T12:21:05.514Z,43
2023-04-15T12:22:08.778Z,43
2023-04-15T12:23:12.300Z,44
2023-04-15T12:24:15.560Z,43
2023-04-15T12:25:18.863Z,43
2023-04-15T12:26:22.219Z,43
2023-04-15T12:27:25.567Z,43
2023-04-15T12:28:30.233Z,43
2023-04-15T12:29:33.508Z,43
2023-04-15T12:30:36.783Z,43
2023-04-15T12:31:40.625Z,43
2023-04-15T12:32:44.324Z,43
2023-04-15T12:33:47.775Z,44
2023-04-15T12:34:51.403Z,44
2023-04-15T12:35:54.727Z,43
2023-04-15T12:36:58.239Z,43
2023-04-15T12:38:01.583Z,44
2023-04-15T12:39:04.889Z,43
2023-04-15T12:40:08.236Z,43
2023-04-15T12:41:11.642Z,44
2023-04-15T12:42:15.155Z,44
2023-04-15T12:43:18.450Z,44
2023-04-15T12:44:21.765Z,43
2023-04-15T12:45:25.235Z,43
2023-04-15T12:46:28.675Z,44
2023-04-15T12:47:32.027Z,44
2023-04-15T12:48:35.473Z,43
2023-04-15T12:49:38.766Z,44
2023-04-15T12:50:42.300Z,44
2023-04-15T12:51:45.590Z,43
2023-04-15T12:52:48.966Z,43
2023-04-15T12:53:52.254Z,43
2023-04-15T12:54:55.532Z,43
2023-04-15T12:55:58.809Z,44
2023-04-15T12:57:07.386Z,44
2023-04-15T12:58:11.265Z,43
2023-04-15T12:59:14.545Z,43
2023-04-15T13:00:18.125Z,42
2023-04-15T13:01:21.443Z,42
2023-04-15T13:02:25.212Z,42
2023-04-15T13:03:29.521Z,41
2023-04-15T13:04:33.528Z,41
2023-04-15T13:05:37.010Z,41
2023-04-15T13:06:40.304Z,41
2023-04-15T13:07:43.584Z,41
2023-04-15T13:08:58.153Z,41
2023-04-15T13:10:02.324Z,42
2023-04-15T13:11:05.664Z,42
2023-04-15T13:12:09.223Z,42
2023-04-15T13:13:12.530Z,42
2023-04-15T13:14:15.869Z,43
2023-04-15T13:15:19.257Z,43
2023-04-15T13:16:22.588Z,43
2023-04-15T13:17:25.962Z,43
2023-04-15T13:18:29.336Z,43
2023-04-15T13:19:32.602Z,43
2023-04-15T13:20:36.152Z,43
2023-04-15T13:21:39.468Z,43
2023-04-15T13:22:42.748Z,43
2023-04-15T13:23:46.265Z,43
2023-04-15T13:24:49.565Z,43
2023-04-15T13:25:52.872Z,43
2023-04-15T13:26:56.265Z,43
2023-04-15T13:27:59.584Z,43
2023-04-15T13:29:03.136Z,43
2023-04-15T13:30:06.626Z,43
2023-04-15T13:31:10.078Z,43
2023-04-15T13:32:13.444Z,43
2023-04-15T13:33:16.744Z,43
2023-04-15T13:34:20.267Z,43
2023-04-15T13:35:23.544Z,43
2023-04-15T13:36:26.874Z,43
2023-04-15T13:37:30.450Z,43
2023-04-15T13:38:33.774Z,43
2023-04-15T13:39:37.277Z,43
2023-04-15T13:40:40.567Z,43
2023-04-15T13:41:43.865Z,43
2023-04-15T13:42:47.299Z,43
2023-04-15T13:43:50.746Z,43
2023-04-15T13:44:54.274Z,43
2023-04-15T13:45:57.652Z,43
2023-04-15T13:47:01.278Z,43
2023-04-15T13:48:04.628Z,42
2023-04-15T13:49:07.885Z,43
2023-04-15T13:50:11.177Z,43
2023-04-15T13:51:14.469Z,43
2023-04-15T13:52:17.788Z,43
2023-04-15T13:53:27.401Z,43
2023-04-15T13:54:39.462Z,43
2023-04-15T13:55:42.934Z,43
2023-04-15T13:56:46.316Z,43
2023-04-15T13:57:49.624Z,43
2023-04-15T13:58:52.917Z,43
2023-04-15T13:59:56.273Z,43
2023-04-15T14:00:59.667Z,43
2023-04-15T14:02:03.515Z,43
2023-04-15T14:03:07.485Z,43
2023-04-15T14:04:11.516Z,42
2023-04-15T14:05:15.296Z,41
2023-04-15T14:06:18.590Z,41
2023-04-15T14:07:21.922Z,41
2023-04-15T14:08:25.314Z,41
2023-04-15T14:09:28.675Z,40
2023-04-15T14:10:31.950Z,40
2023-04-15T14:11:35.283Z,40
2023-04-15T14:12:38.636Z,40
2023-04-15T14:13:42.154Z,40
2023-04-15T14:14:45.461Z,40
2023-04-15T14:15:48.806Z,40
2023-04-15T14:16:52.398Z,40
2023-04-15T14:17:56.095Z,41
2023-04-15T14:18:59.415Z,41
2023-04-15T14:20:02.753Z,42
2023-04-15T14:21:06.292Z,42
2023-04-15T14:22:09.570Z,42
2023-04-15T14:23:12.885Z,42
2023-04-15T14:24:16.321Z,42
2023-04-15T14:25:33.065Z,42
2023-04-15T14:26:37.284Z,42
2023-04-15T14:27:40.573Z,42
2023-04-15T14:28:43.879Z,42
2023-04-15T14:29:47.303Z,42
2023-04-15T14:30:50.680Z,42
2023-04-15T14:32:04.425Z,42
2023-04-15T14:33:12.284Z,42
2023-04-15T14:34:15.570Z,43
2023-04-15T14:35:18.835Z,43
2023-04-15T14:36:22.353Z,43
2023-04-15T14:37:25.638Z,43
2023-04-15T14:38:28.936Z,43
2023-04-15T14:39:32.325Z,43
2023-04-15T14:40:35.624Z,43
2023-04-15T14:41:39.165Z,43
2023-04-15T14:42:42.441Z,43
2023-04-15T14:43:45.721Z,43
2023-04-15T14:44:49.005Z,43
2023-04-15T14:45:52.488Z,43
2023-04-15T14:46:55.916Z,43
2023-04-15T14:47:59.488Z,43
2023-04-15T14:49:03.867Z,43
2023-04-15T14:50:07.772Z,43
2023-04-15T14:51:11.316Z,43
2023-04-15T14:52:14.651Z,43
2023-04-15T14:53:18.174Z,43
2023-04-15T14:54:22.764Z,43
2023-04-15T14:55:26.069Z,43
2023-04-15T14:56:29.335Z,43
2023-04-15T14:57:32.619Z,43
2023-04-15T14:58:36.276Z,43
2023-04-15T14:59:39.645Z,43
2023-04-15T15:00:42.928Z,43
2023-04-15T15:01:46.464Z,43
2023-04-15T15:02:50.169Z,43
2023-04-15T15:03:53.708Z,43
2023-04-15T15:04:57.589Z,43
2023-04-15T15:06:01.314Z,43
2023-04-15T15:07:04.606Z,43